sensor_id;sensor_type;location;lat;lon;timestamp;temperature;humidity
26595;DHT22;14238;49.496;8.154;2024-01-10T00:01:23;-5.60;99.90
26595;DHT22;14238;49.496;8.154;2024-01-10T00:03:54;-5.60;99.90
26595;DHT22;14238;49.496;8.154;2024-01-10T00:06:19;-5.50;99.90
26595;DHT22;14238;49.496;8.154;2024-01-10T00:08:45;-5.50;99.90
26595;DHT22;14238;49.496;8.154;2024-01-10T00:11:11;-5.60;99.90
26595;DHT22;14238;49.496;8.154;2024-01-10T00:13:36;-5.60;99.90
26595;DHT22;14238;49.496;8.154;2024-01-10T00:16:02;-5.60;99.90
26595;DHT22;14238;49.496;8.154;2024-01-10T00:18:27;-5.60;99.90
26595;DHT22;14238;49.496;8.154;2024-01-10T00:20:53;-5.60;99.90
26595;DHT22;14238;49.496;8.154;2024-01-10T00:23:22;-5.60;99.90
26595;DHT22;14238;49.496;8.154;2024-01-10T00:25:48;-5.60;99.90
26595;DHT22;14238;49.496;8.154;2024-01-10T00:28:13;-5.60;99.90
26595;DHT22;14238;49.496;8.154;2024-01-10T00:30:39;-5.60;99.90
26595;DHT22;14238;49.496;8.154;2024-01-10T00:33:05;-5.60;99.90
26595;DHT22;14238;49.496;8.154;2024-01-10T00:35:31;-5.70;99.90
26595;DHT22;14238;49.496;8.154;2024-01-10T00:37:57;-5.80;99.90
26595;DHT22;14238;49.496;8.154;2024-01-10T00:40:23;-5.80;99.90
26595;DHT22;14238;49.496;8.154;2024-01-10T00:42:48;-5.70;99.90
26595;DHT22;14238;49.496;8.154;2024-01-10T00:45:14;-5.80;99.90
26595;DHT22;14238;49.496;8.154;2024-01-10T00:47:39;-5.70;99.90
26595;DHT22;14238;49.496;8.154;2024-01-10T00:50:06;-5.80;99.90
26595;DHT22;14238;49.496;8.154;2024-01-10T00:52:31;-5.80;99.90
26595;DHT22;14238;49.496;8.154;2024-01-10T00:54:57;-5.80;99.90
26595;DHT22;14238;49.496;8.154;2024-01-10T00:57:22;-5.80;99.90
26595;DHT22;14238;49.496;8.154;2024-01-10T00:59:48;-5.80;99.90
26595;DHT22;14238;49.496;8.154;2024-01-10T01:02:13;-5.80;99.90
26595;DHT22;14238;49.496;8.154;2024-01-10T01:04:39;-5.80;99.90
26595;DHT22;14238;49.496;8.154;2024-01-10T01:07:04;-5.70;99.90
26595;DHT22;14238;49.496;8.154;2024-01-10T01:09:30;-5.70;99.90
26595;DHT22;14238;49.496;8.154;2024-01-10T01:11:56;-5.70;99.90
26595;DHT22;14238;49.496;8.154;2024-01-10T01:14:21;-5.70;99.90
26595;DHT22;14238;49.496;8.154;2024-01-10T01:16:47;-5.60;99.90
26595;DHT22;14238;49.496;8.154;2024-01-10T01:19:12;-5.60;99.90
26595;DHT22;14238;49.496;8.154;2024-01-10T01:21:38;-5.60;99.90
26595;DHT22;14238;49.496;8.154;2024-01-10T01:24:03;-5.60;99.90
26595;DHT22;14238;49.496;8.154;2024-01-10T01:26:29;-5.60;99.90
26595;DHT22;14238;49.496;8.154;2024-01-10T01:28:54;-5.60;99.90
26595;DHT22;14238;49.496;8.154;2024-01-10T01:31:20;-5.60;99.90
26595;DHT22;14238;49.496;8.154;2024-01-10T01:33:46;-5.50;99.90
26595;DHT22;14238;49.496;8.154;2024-01-10T01:36:11;-5.50;99.90
26595;DHT22;14238;49.496;8.154;2024-01-10T01:38:37;-5.50;99.90
26595;DHT22;14238;49.496;8.154;2024-01-10T01:41:02;-5.50;99.90
26595;DHT22;14238;49.496;8.154;2024-01-10T01:43:28;-5.50;99.90
26595;DHT22;14238;49.496;8.154;2024-01-10T01:45:55;-5.50;99.90
26595;DHT22;14238;49.496;8.154;2024-01-10T01:48:22;-5.40;99.90
26595;DHT22;14238;49.496;8.154;2024-01-10T01:50:50;-5.40;99.90
26595;DHT22;14238;49.496;8.154;2024-01-10T01:53:17;-5.40;99.90
26595;DHT22;14238;49.496;8.154;2024-01-10T01:55:46;-5.40;99.90
26595;DHT22;14238;49.496;8.154;2024-01-10T01:58:12;-5.40;99.90
26595;DHT22;14238;49.496;8.154;2024-01-10T02:00:38;-5.40;99.90
26595;DHT22;14238;49.496;8.154;2024-01-10T02:03:05;-5.40;99.90
26595;DHT22;14238;49.496;8.154;2024-01-10T02:05:32;-5.40;99.90
26595;DHT22;14238;49.496;8.154;2024-01-10T02:07:58;-5.40;99.90
26595;DHT22;14238;49.496;8.154;2024-01-10T02:10:23;-5.40;99.90
26595;DHT22;14238;49.496;8.154;2024-01-10T02:12:49;-5.30;99.90
26595;DHT22;14238;49.496;8.154;2024-01-10T02:15:15;-5.30;99.90
26595;DHT22;14238;49.496;8.154;2024-01-10T02:17:40;-5.30;99.90
26595;DHT22;14238;49.496;8.154;2024-01-10T02:20:13;-5.30;99.90
26595;DHT22;14238;49.496;8.154;2024-01-10T02:22:39;-5.30;99.90
26595;DHT22;14238;49.496;8.154;2024-01-10T02:25:09;-5.20;99.90
26595;DHT22;14238;49.496;8.154;2024-01-10T02:27:38;-5.20;99.90
26595;DHT22;14238;49.496;8.154;2024-01-10T02:30:05;-5.10;99.90
26595;DHT22;14238;49.496;8.154;2024-01-10T02:32:31;-5.20;99.90
26595;DHT22;14238;49.496;8.154;2024-01-10T02:34:58;-5.20;99.90
26595;DHT22;14238;49.496;8.154;2024-01-10T02:37:23;-5.20;99.90
26595;DHT22;14238;49.496;8.154;2024-01-10T02:39:49;-5.20;99.90
26595;DHT22;14238;49.496;8.154;2024-01-10T02:42:15;-5.20;99.90
26595;DHT22;14238;49.496;8.154;2024-01-10T02:44:41;-5.20;99.90
26595;DHT22;14238;49.496;8.154;2024-01-10T02:47:07;-5.10;99.90
26595;DHT22;14238;49.496;8.154;2024-01-10T02:49:33;-5.10;99.90
26595;DHT22;14238;49.496;8.154;2024-01-10T02:51:58;-5.10;99.90
26595;DHT22;14238;49.496;8.154;2024-01-10T02:54:24;-5.10;99.90
26595;DHT22;14238;49.496;8.154;2024-01-10T02:56:49;-5.10;99.90
26595;DHT22;14238;49.496;8.154;2024-01-10T02:59:15;-5.20;99.90
26595;DHT22;14238;49.496;8.154;2024-01-10T03:01:40;-5.20;99.90
26595;DHT22;14238;49.496;8.154;2024-01-10T03:04:06;-5.20;99.90
26595;DHT22;14238;49.496;8.154;2024-01-10T03:06:33;-5.20;99.90
26595;DHT22;14238;49.496;8.154;2024-01-10T03:08:58;-5.20;99.90
26595;DHT22;14238;49.496;8.154;2024-01-10T03:11:24;-5.20;99.90
26595;DHT22;14238;49.496;8.154;2024-01-10T03:14:02;-5.20;99.90
26595;DHT22;14238;49.496;8.154;2024-01-10T03:16:28;-5.20;99.90
26595;DHT22;14238;49.496;8.154;2024-01-10T03:18:54;-5.10;99.90
26595;DHT22;14238;49.496;8.154;2024-01-10T03:21:19;-5.10;99.90
26595;DHT22;14238;49.496;8.154;2024-01-10T03:23:57;-5.10;99.90
26595;DHT22;14238;49.496;8.154;2024-01-10T03:26:23;-5.00;99.90
26595;DHT22;14238;49.496;8.154;2024-01-10T03:28:49;-5.10;99.90
26595;DHT22;14238;49.496;8.154;2024-01-10T03:31:15;-5.10;99.90
26595;DHT22;14238;49.496;8.154;2024-01-10T03:33:41;-5.10;99.90
26595;DHT22;14238;49.496;8.154;2024-01-10T03:36:10;-5.10;99.90
26595;DHT22;14238;49.496;8.154;2024-01-10T03:38:36;-5.10;99.90
26595;DHT22;14238;49.496;8.154;2024-01-10T03:41:01;-5.00;99.90
26595;DHT22;14238;49.496;8.154;2024-01-10T03:43:27;-5.10;99.90
26595;DHT22;14238;49.496;8.154;2024-01-10T03:45:52;-5.10;99.90
26595;DHT22;14238;49.496;8.154;2024-01-10T03:48:19;-5.10;99.90
26595;DHT22;14238;49.496;8.154;2024-01-10T03:50:44;-5.10;99.90
26595;DHT22;14238;49.496;8.154;2024-01-10T03:53:10;-5.20;99.90
26595;DHT22;14238;49.496;8.154;2024-01-10T03:55:35;-5.20;99.90
26595;DHT22;14238;49.496;8.154;2024-01-10T03:58:01;-5.10;99.90
26595;DHT22;14238;49.496;8.154;2024-01-10T04:00:26;-5.10;99.90
26595;DHT22;14238;49.496;8.154;2024-01-10T04:02:52;-5.10;99.90
26595;DHT22;14238;49.496;8.154;2024-01-10T04:05:18;-5.10;99.90
26595;DHT22;14238;49.496;8.154;2024-01-10T04:07:44;-5.10;99.90
26595;DHT22;14238;49.496;8.154;2024-01-10T04:10:10;-5.10;99.90
26595;DHT22;14238;49.496;8.154;2024-01-10T04:12:36;-5.20;99.90
26595;DHT22;14238;49.496;8.154;2024-01-10T04:15:03;-5.20;99.90
26595;DHT22;14238;49.496;8.154;2024-01-10T04:17:29;-5.30;99.90
26595;DHT22;14238;49.496;8.154;2024-01-10T04:19:55;-5.30;99.90
26595;DHT22;14238;49.496;8.154;2024-01-10T04:22:21;-5.20;99.90
26595;DHT22;14238;49.496;8.154;2024-01-10T04:24:46;-5.30;99.90
26595;DHT22;14238;49.496;8.154;2024-01-10T04:27:12;-5.30;99.90
26595;DHT22;14238;49.496;8.154;2024-01-10T04:29:37;-5.30;99.90
26595;DHT22;14238;49.496;8.154;2024-01-10T04:32:03;-5.30;99.90
26595;DHT22;14238;49.496;8.154;2024-01-10T04:34:29;-5.30;99.90
26595;DHT22;14238;49.496;8.154;2024-01-10T04:36:55;-5.40;99.90
26595;DHT22;14238;49.496;8.154;2024-01-10T04:39:20;-5.30;99.90
26595;DHT22;14238;49.496;8.154;2024-01-10T04:41:46;-5.40;99.90
26595;DHT22;14238;49.496;8.154;2024-01-10T04:44:11;-5.30;99.90
26595;DHT22;14238;49.496;8.154;2024-01-10T04:46:37;-5.40;99.90
26595;DHT22;14238;49.496;8.154;2024-01-10T04:49:02;-5.30;99.90
26595;DHT22;14238;49.496;8.154;2024-01-10T04:51:28;-5.30;99.90
26595;DHT22;14238;49.496;8.154;2024-01-10T04:53:54;-5.30;99.90
26595;DHT22;14238;49.496;8.154;2024-01-10T04:56:21;-5.30;99.90
26595;DHT22;14238;49.496;8.154;2024-01-10T04:58:47;-5.30;99.90
26595;DHT22;14238;49.496;8.154;2024-01-10T05:01:13;-5.30;99.90
26595;DHT22;14238;49.496;8.154;2024-01-10T05:03:39;-5.20;99.90
26595;DHT22;14238;49.496;8.154;2024-01-10T05:06:04;-5.20;99.90
26595;DHT22;14238;49.496;8.154;2024-01-10T05:08:30;-5.20;99.90
26595;DHT22;14238;49.496;8.154;2024-01-10T05:10:55;-5.20;99.90
26595;DHT22;14238;49.496;8.154;2024-01-10T05:13:21;-5.20;99.90
26595;DHT22;14238;49.496;8.154;2024-01-10T05:15:46;-5.30;99.90
26595;DHT22;14238;49.496;8.154;2024-01-10T05:18:12;-5.30;99.90
26595;DHT22;14238;49.496;8.154;2024-01-10T05:20:37;-5.30;99.90
26595;DHT22;14238;49.496;8.154;2024-01-10T05:23:03;-5.30;99.90
26595;DHT22;14238;49.496;8.154;2024-01-10T05:25:29;-5.30;99.90
26595;DHT22;14238;49.496;8.154;2024-01-10T05:27:55;-5.30;99.90
26595;DHT22;14238;49.496;8.154;2024-01-10T05:30:20;-5.30;99.90
26595;DHT22;14238;49.496;8.154;2024-01-10T05:32:46;-5.30;99.90
26595;DHT22;14238;49.496;8.154;2024-01-10T05:35:11;-5.40;99.90
26595;DHT22;14238;49.496;8.154;2024-01-10T05:37:37;-5.40;99.90
26595;DHT22;14238;49.496;8.154;2024-01-10T05:40:03;-5.40;99.90
26595;DHT22;14238;49.496;8.154;2024-01-10T05:42:31;-5.30;99.90
26595;DHT22;14238;49.496;8.154;2024-01-10T05:44:58;-5.30;99.90
26595;DHT22;14238;49.496;8.154;2024-01-10T05:47:24;-5.30;99.90
26595;DHT22;14238;49.496;8.154;2024-01-10T05:49:51;-5.30;99.90
26595;DHT22;14238;49.496;8.154;2024-01-10T05:52:18;-5.30;99.90
26595;DHT22;14238;49.496;8.154;2024-01-10T05:54:44;-5.30;99.90
26595;DHT22;14238;49.496;8.154;2024-01-10T05:57:10;-5.30;99.90
26595;DHT22;14238;49.496;8.154;2024-01-10T05:59:35;-5.40;99.90
26595;DHT22;14238;49.496;8.154;2024-01-10T06:02:02;-5.40;99.90
26595;DHT22;14238;49.496;8.154;2024-01-10T06:04:28;-5.40;99.90
26595;DHT22;14238;49.496;8.154;2024-01-10T06:06:57;-5.40;99.90
26595;DHT22;14238;49.496;8.154;2024-01-10T06:09:22;-5.30;99.90
26595;DHT22;14238;49.496;8.154;2024-01-10T06:11:48;-5.40;99.90
26595;DHT22;14238;49.496;8.154;2024-01-10T06:14:14;-5.30;99.90
26595;DHT22;14238;49.496;8.154;2024-01-10T06:16:39;-5.30;99.90
26595;DHT22;14238;49.496;8.154;2024-01-10T06:19:06;-5.30;99.90
26595;DHT22;14238;49.496;8.154;2024-01-10T06:21:31;-5.30;99.90
26595;DHT22;14238;49.496;8.154;2024-01-10T06:23:57;-5.30;99.90
26595;DHT22;14238;49.496;8.154;2024-01-10T06:26:22;-5.30;99.90
26595;DHT22;14238;49.496;8.154;2024-01-10T06:28:48;-5.30;99.90
26595;DHT22;14238;49.496;8.154;2024-01-10T06:31:14;-5.30;99.90
26595;DHT22;14238;49.496;8.154;2024-01-10T06:33:39;-5.40;99.90
26595;DHT22;14238;49.496;8.154;2024-01-10T06:36:05;-5.40;99.90
26595;DHT22;14238;49.496;8.154;2024-01-10T06:38:30;-5.40;99.90
26595;DHT22;14238;49.496;8.154;2024-01-10T06:40:56;-5.30;99.90
26595;DHT22;14238;49.496;8.154;2024-01-10T06:43:22;-5.30;99.90
26595;DHT22;14238;49.496;8.154;2024-01-10T06:45:47;-5.30;99.90
26595;DHT22;14238;49.496;8.154;2024-01-10T06:48:13;-5.40;99.90
26595;DHT22;14238;49.496;8.154;2024-01-10T06:50:40;-5.40;99.90
26595;DHT22;14238;49.496;8.154;2024-01-10T06:53:05;-5.30;99.90
26595;DHT22;14238;49.496;8.154;2024-01-10T06:55:31;-5.30;99.90
26595;DHT22;14238;49.496;8.154;2024-01-10T06:57:56;-5.30;99.90
26595;DHT22;14238;49.496;8.154;2024-01-10T07:00:22;-5.30;99.90
26595;DHT22;14238;49.496;8.154;2024-01-10T07:02:48;-5.30;99.90
26595;DHT22;14238;49.496;8.154;2024-01-10T07:05:14;-5.20;99.90
26595;DHT22;14238;49.496;8.154;2024-01-10T07:07:41;-5.20;99.90
26595;DHT22;14238;49.496;8.154;2024-01-10T07:10:07;-5.20;99.90
26595;DHT22;14238;49.496;8.154;2024-01-10T07:12:33;-5.20;99.90
26595;DHT22;14238;49.496;8.154;2024-01-10T07:14:59;-5.20;99.90
26595;DHT22;14238;49.496;8.154;2024-01-10T07:17:25;-5.20;99.90
26595;DHT22;14238;49.496;8.154;2024-01-10T07:19:51;-5.20;99.90
26595;DHT22;14238;49.496;8.154;2024-01-10T07:22:16;-5.20;99.90
26595;DHT22;14238;49.496;8.154;2024-01-10T07:24:43;-5.10;99.90
26595;DHT22;14238;49.496;8.154;2024-01-10T07:27:09;-5.20;99.90
26595;DHT22;14238;49.496;8.154;2024-01-10T07:29:35;-5.10;99.90
26595;DHT22;14238;49.496;8.154;2024-01-10T07:32:00;-5.10;99.90
26595;DHT22;14238;49.496;8.154;2024-01-10T07:34:26;-5.20;99.90
26595;DHT22;14238;49.496;8.154;2024-01-10T07:36:51;-5.10;99.90
26595;DHT22;14238;49.496;8.154;2024-01-10T07:39:19;-5.10;99.90
26595;DHT22;14238;49.496;8.154;2024-01-10T07:41:45;-5.10;99.90
26595;DHT22;14238;49.496;8.154;2024-01-10T07:44:10;-5.10;99.90
26595;DHT22;14238;49.496;8.154;2024-01-10T07:46:36;-5.00;99.90
26595;DHT22;14238;49.496;8.154;2024-01-10T07:49:04;-5.00;99.90
26595;DHT22;14238;49.496;8.154;2024-01-10T07:51:30;-4.90;99.90
26595;DHT22;14238;49.496;8.154;2024-01-10T07:53:56;-4.90;99.90
26595;DHT22;14238;49.496;8.154;2024-01-10T07:56:22;-4.80;99.90
26595;DHT22;14238;49.496;8.154;2024-01-10T07:58:47;-4.80;99.90
26595;DHT22;14238;49.496;8.154;2024-01-10T08:01:14;-4.80;99.90
26595;DHT22;14238;49.496;8.154;2024-01-10T08:03:40;-4.80;99.90
26595;DHT22;14238;49.496;8.154;2024-01-10T08:06:06;-4.80;99.90
26595;DHT22;14238;49.496;8.154;2024-01-10T08:08:32;-4.80;99.90
26595;DHT22;14238;49.496;8.154;2024-01-10T08:10:57;-4.70;99.90
26595;DHT22;14238;49.496;8.154;2024-01-10T08:13:23;-4.60;99.90
26595;DHT22;14238;49.496;8.154;2024-01-10T08:15:48;-4.60;99.90
26595;DHT22;14238;49.496;8.154;2024-01-10T08:18:14;-4.50;99.90
26595;DHT22;14238;49.496;8.154;2024-01-10T08:20:40;-4.50;99.90
26595;DHT22;14238;49.496;8.154;2024-01-10T08:23:05;-4.50;99.90
26595;DHT22;14238;49.496;8.154;2024-01-10T08:25:31;-4.40;99.90
26595;DHT22;14238;49.496;8.154;2024-01-10T08:27:57;-4.40;99.90
26595;DHT22;14238;49.496;8.154;2024-01-10T08:30:23;-4.30;99.90
26595;DHT22;14238;49.496;8.154;2024-01-10T08:32:49;-4.20;99.90
26595;DHT22;14238;49.496;8.154;2024-01-10T08:35:14;-4.20;99.90
26595;DHT22;14238;49.496;8.154;2024-01-10T08:37:41;-4.10;99.90
26595;DHT22;14238;49.496;8.154;2024-01-10T08:40:09;-4.00;99.90
26595;DHT22;14238;49.496;8.154;2024-01-10T08:42:37;-4.00;99.90
26595;DHT22;14238;49.496;8.154;2024-01-10T08:45:04;-4.00;99.90
26595;DHT22;14238;49.496;8.154;2024-01-10T08:47:29;-4.00;99.90
26595;DHT22;14238;49.496;8.154;2024-01-10T08:49:58;-3.90;99.90
26595;DHT22;14238;49.496;8.154;2024-01-10T08:52:24;-3.80;99.90
26595;DHT22;14238;49.496;8.154;2024-01-10T08:54:49;-3.80;99.90
26595;DHT22;14238;49.496;8.154;2024-01-10T08:57:15;-3.70;99.90
26595;DHT22;14238;49.496;8.154;2024-01-10T08:59:43;-3.70;99.90
26595;DHT22;14238;49.496;8.154;2024-01-10T09:02:09;-3.70;99.90
26595;DHT22;14238;49.496;8.154;2024-01-10T09:04:35;-3.70;99.90
26595;DHT22;14238;49.496;8.154;2024-01-10T09:07:00;-3.60;99.90
26595;DHT22;14238;49.496;8.154;2024-01-10T09:09:26;-3.60;99.90
26595;DHT22;14238;49.496;8.154;2024-01-10T09:11:51;-3.60;99.90
26595;DHT22;14238;49.496;8.154;2024-01-10T09:14:17;-3.70;99.90
26595;DHT22;14238;49.496;8.154;2024-01-10T09:16:43;-3.70;99.90
26595;DHT22;14238;49.496;8.154;2024-01-10T09:19:09;-3.60;99.90
26595;DHT22;14238;49.496;8.154;2024-01-10T09:21:35;-3.70;99.90
26595;DHT22;14238;49.496;8.154;2024-01-10T09:24:00;-3.60;99.90
26595;DHT22;14238;49.496;8.154;2024-01-10T09:26:26;-3.50;99.90
26595;DHT22;14238;49.496;8.154;2024-01-10T09:28:51;-3.50;99.90
26595;DHT22;14238;49.496;8.154;2024-01-10T09:31:17;-3.40;99.90
26595;DHT22;14238;49.496;8.154;2024-01-10T09:33:42;-3.30;99.90
26595;DHT22;14238;49.496;8.154;2024-01-10T09:36:08;-3.30;99.90
26595;DHT22;14238;49.496;8.154;2024-01-10T09:38:37;-3.30;99.90
26595;DHT22;14238;49.496;8.154;2024-01-10T09:41:04;-3.10;99.90
26595;DHT22;14238;49.496;8.154;2024-01-10T09:43:30;-2.70;99.90
26595;DHT22;14238;49.496;8.154;2024-01-10T09:45:58;-2.50;99.90
26595;DHT22;14238;49.496;8.154;2024-01-10T09:48:26;-2.30;99.90
26595;DHT22;14238;49.496;8.154;2024-01-10T09:50:52;-2.10;99.90
26595;DHT22;14238;49.496;8.154;2024-01-10T09:53:27;-2.00;99.90
26595;DHT22;14238;49.496;8.154;2024-01-10T09:55:53;-1.90;99.90
26595;DHT22;14238;49.496;8.154;2024-01-10T09:58:23;-1.80;99.90
26595;DHT22;14238;49.496;8.154;2024-01-10T10:00:50;-1.70;99.90
26595;DHT22;14238;49.496;8.154;2024-01-10T10:03:17;-1.80;99.90
26595;DHT22;14238;49.496;8.154;2024-01-10T10:05:43;-1.90;99.90
26595;DHT22;14238;49.496;8.154;2024-01-10T10:08:14;-1.50;99.90
26595;DHT22;14238;49.496;8.154;2024-01-10T10:10:41;-1.60;99.90
26595;DHT22;14238;49.496;8.154;2024-01-10T10:13:23;-1.70;99.90
26595;DHT22;14238;49.496;8.154;2024-01-10T10:16:03;-1.80;99.90
26595;DHT22;14238;49.496;8.154;2024-01-10T10:18:29;-1.80;99.90
26595;DHT22;14238;49.496;8.154;2024-01-10T10:21:09;-1.70;99.90
26595;DHT22;14238;49.496;8.154;2024-01-10T10:23:36;-1.60;99.90
26595;DHT22;14238;49.496;8.154;2024-01-10T10:26:15;-1.50;99.90
26595;DHT22;14238;49.496;8.154;2024-01-10T10:28:46;-1.40;99.90
26595;DHT22;14238;49.496;8.154;2024-01-10T10:31:12;-1.40;99.90
26595;DHT22;14238;49.496;8.154;2024-01-10T10:33:37;-1.50;99.90
26595;DHT22;14238;49.496;8.154;2024-01-10T10:36:03;-1.60;99.90
26595;DHT22;14238;49.496;8.154;2024-01-10T10:38:29;-1.60;99.90
26595;DHT22;14238;49.496;8.154;2024-01-10T10:40:55;-1.50;99.90
26595;DHT22;14238;49.496;8.154;2024-01-10T10:43:21;-1.60;99.90
26595;DHT22;14238;49.496;8.154;2024-01-10T10:45:49;-1.70;99.90
26595;DHT22;14238;49.496;8.154;2024-01-10T10:48:19;-1.60;99.90
26595;DHT22;14238;49.496;8.154;2024-01-10T10:51:10;-1.10;99.90
26595;DHT22;14238;49.496;8.154;2024-01-10T10:53:42;0.10;99.90
26595;DHT22;14238;49.496;8.154;2024-01-10T10:56:11;1.30;99.10
26595;DHT22;14238;49.496;8.154;2024-01-10T10:58:42;2.40;97.50
26595;DHT22;14238;49.496;8.154;2024-01-10T11:01:12;2.20;95.70
26595;DHT22;14238;49.496;8.154;2024-01-10T11:03:40;3.00;95.50
26595;DHT22;14238;49.496;8.154;2024-01-10T11:06:08;3.20;95.20
26595;DHT22;14238;49.496;8.154;2024-01-10T11:08:40;3.50;95.00
26595;DHT22;14238;49.496;8.154;2024-01-10T11:14:09;3.90;94.10
26595;DHT22;14238;49.496;8.154;2024-01-10T11:19:43;4.70;92.50
26595;DHT22;14238;49.496;8.154;2024-01-10T11:25:10;4.50;91.60
26595;DHT22;14238;49.496;8.154;2024-01-10T11:27:36;5.30;90.30
26595;DHT22;14238;49.496;8.154;2024-01-10T11:30:02;5.30;90.00
26595;DHT22;14238;49.496;8.154;2024-01-10T11:32:30;5.50;88.60
26595;DHT22;14238;49.496;8.154;2024-01-10T11:34:58;6.00;89.80
26595;DHT22;14238;49.496;8.154;2024-01-10T11:37:28;6.30;88.40
26595;DHT22;14238;49.496;8.154;2024-01-10T11:40:03;5.50;85.40
26595;DHT22;14238;49.496;8.154;2024-01-10T11:42:42;5.60;84.60
26595;DHT22;14238;49.496;8.154;2024-01-10T11:45:08;5.30;83.40
26595;DHT22;14238;49.496;8.154;2024-01-10T11:47:37;5.90;84.60
26595;DHT22;14238;49.496;8.154;2024-01-10T11:50:03;6.20;83.20
26595;DHT22;14238;49.496;8.154;2024-01-10T11:52:33;5.50;85.50
26595;DHT22;14238;49.496;8.154;2024-01-10T11:55:02;5.50;83.30
26595;DHT22;14238;49.496;8.154;2024-01-10T11:57:30;5.00;85.20
26595;DHT22;14238;49.496;8.154;2024-01-10T11:59:58;5.40;87.00
26595;DHT22;14238;49.496;8.154;2024-01-10T12:02:29;5.30;83.80
26595;DHT22;14238;49.496;8.154;2024-01-10T12:04:55;6.00;85.30
26595;DHT22;14238;49.496;8.154;2024-01-10T12:07:21;5.80;84.80
26595;DHT22;14238;49.496;8.154;2024-01-10T12:09:47;5.50;84.80
26595;DHT22;14238;49.496;8.154;2024-01-10T12:12:13;5.70;83.10
26595;DHT22;14238;49.496;8.154;2024-01-10T12:14:39;5.70;84.60
26595;DHT22;14238;49.496;8.154;2024-01-10T12:17:05;6.80;83.70
26595;DHT22;14238;49.496;8.154;2024-01-10T12:19:34;6.30;83.50
26595;DHT22;14238;49.496;8.154;2024-01-10T12:22:00;6.80;81.90
26595;DHT22;14238;49.496;8.154;2024-01-10T12:24:27;6.80;82.50
26595;DHT22;14238;49.496;8.154;2024-01-10T12:26:55;6.50;84.20
26595;DHT22;14238;49.496;8.154;2024-01-10T12:29:21;6.90;80.50
26595;DHT22;14238;49.496;8.154;2024-01-10T12:31:47;6.90;81.70
26595;DHT22;14238;49.496;8.154;2024-01-10T12:34:13;6.70;80.30
26595;DHT22;14238;49.496;8.154;2024-01-10T12:36:43;7.00;81.20
26595;DHT22;14238;49.496;8.154;2024-01-10T12:39:09;7.70;81.20
26595;DHT22;14238;49.496;8.154;2024-01-10T12:41:35;7.80;80.80
26595;DHT22;14238;49.496;8.154;2024-01-10T12:44:02;7.90;78.80
26595;DHT22;14238;49.496;8.154;2024-01-10T12:46:29;7.50;78.10
26595;DHT22;14238;49.496;8.154;2024-01-10T12:48:59;8.00;77.90
26595;DHT22;14238;49.496;8.154;2024-01-10T12:51:29;8.00;78.20
26595;DHT22;14238;49.496;8.154;2024-01-10T12:53:55;8.00;77.80
26595;DHT22;14238;49.496;8.154;2024-01-10T12:56:24;7.60;80.70
26595;DHT22;14238;49.496;8.154;2024-01-10T12:58:49;7.90;78.40
26595;DHT22;14238;49.496;8.154;2024-01-10T13:01:15;8.00;77.60
26595;DHT22;14238;49.496;8.154;2024-01-10T13:03:40;7.50;78.70
26595;DHT22;14238;49.496;8.154;2024-01-10T13:06:06;7.30;79.80
26595;DHT22;14238;49.496;8.154;2024-01-10T13:08:32;7.20;78.70
26595;DHT22;14238;49.496;8.154;2024-01-10T13:10:58;7.20;80.10
26595;DHT22;14238;49.496;8.154;2024-01-10T13:13:25;6.60;78.60
26595;DHT22;14238;49.496;8.154;2024-01-10T13:15:51;6.00;81.90
26595;DHT22;14238;49.496;8.154;2024-01-10T13:18:16;6.60;81.30
26595;DHT22;14238;49.496;8.154;2024-01-10T13:20:43;6.60;79.30
26595;DHT22;14238;49.496;8.154;2024-01-10T13:23:09;6.90;78.50
26595;DHT22;14238;49.496;8.154;2024-01-10T13:25:35;7.00;80.10
26595;DHT22;14238;49.496;8.154;2024-01-10T13:28:01;7.30;80.30
26595;DHT22;14238;49.496;8.154;2024-01-10T13:30:27;7.60;80.30
26595;DHT22;14238;49.496;8.154;2024-01-10T13:32:53;7.40;77.20
26595;DHT22;14238;49.496;8.154;2024-01-10T13:35:18;7.40;78.30
26595;DHT22;14238;49.496;8.154;2024-01-10T13:37:46;7.50;76.90
26595;DHT22;14238;49.496;8.154;2024-01-10T13:40:12;7.20;78.30
26595;DHT22;14238;49.496;8.154;2024-01-10T13:42:40;7.40;77.90
26595;DHT22;14238;49.496;8.154;2024-01-10T13:45:07;6.80;78.80
26595;DHT22;14238;49.496;8.154;2024-01-10T13:47:33;7.30;78.50
26595;DHT22;14238;49.496;8.154;2024-01-10T13:50:00;7.30;77.70
26595;DHT22;14238;49.496;8.154;2024-01-10T13:52:26;6.60;77.00
26595;DHT22;14238;49.496;8.154;2024-01-10T13:54:51;6.70;79.80
26595;DHT22;14238;49.496;8.154;2024-01-10T13:57:17;7.30;77.90
26595;DHT22;14238;49.496;8.154;2024-01-10T13:59:43;7.40;79.10
26595;DHT22;14238;49.496;8.154;2024-01-10T14:02:10;6.80;77.20
26595;DHT22;14238;49.496;8.154;2024-01-10T14:04:36;7.00;78.10
26595;DHT22;14238;49.496;8.154;2024-01-10T14:07:01;5.80;79.50
26595;DHT22;14238;49.496;8.154;2024-01-10T14:09:30;4.50;82.40
26595;DHT22;14238;49.496;8.154;2024-01-10T14:11:55;3.50;85.40
26595;DHT22;14238;49.496;8.154;2024-01-10T14:14:21;2.90;88.20
